Time;durP1;ratioP1;P1;durP2;ratioP2;P2;SDS_P1;SDS_P2;PMS_P1;PMS_P2;Temp;Humidity;BMP_temperature;BMP_pressure;BME280_temperature;BME280_humidity;BME280_pressure;Samples;Min_cycle;Max_cycle;Signal;HPM_P1;HPM_P2
2022/01/14 00:02:17;;;;;;;1.95;1.15;;;24.10;49.80;;;;;;5014280;28;20232;-47
2022/01/14 00:04:48;;;;;;;2.50;1.20;;;24.20;49.90;;;;;;5013067;28;20244;-47
2022/01/14 00:07:20;;;;;;;2.00;1.20;;;24.20;49.70;;;;;;5013564;28;20284;-42
2022/01/14 00:09:55;;;;;;;1.73;1.17;;;24.20;49.70;;;;;;5025485;28;20200;-45
2022/01/14 00:12:28;;;;;;;1.73;1.10;;;24.30;49.60;;;;;;5024142;28;20199;-48
2022/01/14 00:15:12;;;;;;;2.10;1.10;;;24.30;49.50;;;;;;5022315;28;20232;-42
2022/01/14 00:17:42;;;;;;;2.97;1.30;;;24.30;49.50;;;;;;5017871;28;20700;-46
2022/01/14 00:20:14;;;;;;;2.60;1.58;;;24.30;49.50;;;;;;5028306;28;20460;-43
2022/01/14 00:22:46;;;;;;;2.13;1.35;;;24.40;49.40;;;;;;5012548;28;20281;-41
2022/01/14 00:33:36;;;;;;;3.60;1.90;;;24.50;49.30;;;;;;5026831;28;20246;-45
2022/01/14 00:36:07;;;;;;;5.20;3.03;;;24.50;49.50;;;;;;5026233;28;20318;-48
2022/01/14 00:38:39;;;;;;;2.95;2.20;;;24.50;49.40;;;;;;5025949;28;20295;-42
2022/01/14 00:41:11;;;;;;;3.58;2.80;;;24.50;49.40;;;;;;5029112;28;20279;-47
2022/01/14 00:43:43;;;;;;;2.75;1.90;;;24.60;49.40;;;;;;5028383;28;20251;-43
2022/01/14 00:46:14;;;;;;;2.83;2.10;;;24.60;49.50;;;;;;5013539;28;20216;-48
2022/01/14 00:48:45;;;;;;;3.05;2.10;;;24.60;49.40;;;;;;5027688;28;20651;-42
2022/01/14 00:51:15;;;;;;;3.08;2.25;;;24.60;49.40;;;;;;5027514;28;20291;-41
2022/01/14 00:53:48;;;;;;;3.33;2.05;;;24.70;49.40;;;;;;5023172;28;20311;-43
2022/01/14 00:56:31;;;;;;;2.60;1.90;;;24.70;49.40;;;;;;5014533;28;20252;-43
2022/01/14 00:59:15;;;;;;;3.03;2.17;;;24.70;49.40;;;;;;5017554;28;20215;-41
2022/01/14 01:01:48;;;;;;;3.53;2.25;;;24.70;49.20;;;;;;5028639;28;20287;-43
2022/01/14 01:04:20;;;;;;;3.63;2.33;;;24.70;49.20;;;;;;5011812;28;20857;-42
2022/01/14 01:06:51;;;;;;;3.45;2.30;;;24.80;49.20;;;;;;5029609;28;20306;-42
2022/01/14 01:09:25;;;;;;;3.38;2.08;;;24.80;49.00;;;;;;5028247;28;20262;-47
2022/01/14 01:12:08;;;;;;;4.93;2.50;;;24.90;49.00;;;;;;5016334;28;20204;-45
2022/01/14 01:14:41;;;;;;;3.35;2.25;;;24.90;48.90;;;;;;5013350;28;20221;-41
2022/01/14 01:17:12;;;;;;;2.92;2.10;;;24.90;48.80;;;;;;5017956;28;20200;-43
2022/01/14 01:19:42;;;;;;;2.50;1.95;;;24.90;48.80;;;;;;5024536;28;20283;-47
2022/01/14 01:22:13;;;;;;;4.03;2.30;;;24.90;48.80;;;;;;5012534;28;20279;-47
2022/01/14 01:24:45;;;;;;;2.97;1.92;;;25.00;48.90;;;;;;5028543;28;20299;-44
2022/01/14 01:27:18;;;;;;;3.45;2.00;;;25.00;48.90;;;;;;5027255;28;20263;-48
2022/01/14 01:29:53;;;;;;;4.03;2.33;;;25.00;48.90;;;;;;5024852;28;20695;-43
2022/01/14 01:32:24;;;;;;;2.95;2.05;;;25.10;49.00;;;;;;5018481;28;20590;-41
2022/01/14 01:34:54;;;;;;;4.00;2.20;;;25.10;49.00;;;;;;5017788;28;20333;-44
2022/01/14 01:37:25;;;;;;;2.45;1.90;;;25.10;48.90;;;;;;5027200;28;20284;-41
2022/01/14 01:39:57;;;;;;;1.95;1.70;;;25.10;48.90;;;;;;5028114;28;20725;-43
2022/01/14 01:42:30;;;;;;;3.22;1.95;;;25.10;48.90;;;;;;5043068;28;20209;-46
2022/01/14 01:45:00;;;;;;;2.83;1.90;;;25.20;48.90;;;;;;5016440;28;20204;-46
2022/01/14 01:47:31;;;;;;;2.10;1.70;;;25.20;48.70;;;;;;5012908;28;20204;-45
2022/01/14 01:50:09;;;;;;;1.90;1.63;;;25.30;48.70;;;;;;5018886;28;20279;-49
2022/01/14 01:52:40;;;;;;;2.47;2.00;;;25.30;48.70;;;;;;5022643;28;20243;-45
2022/01/14 01:55:13;;;;;;;3.88;1.98;;;25.30;48.50;;;;;;5013533;28;20270;-45
2022/01/14 01:57:46;;;;;;;2.97;2.05;;;25.30;48.40;;;;;;5038004;28;20239;-44
2022/01/14 02:00:20;;;;;;;3.10;1.77;;;25.40;48.40;;;;;;5010768;28;20708;-49
2022/01/14 02:02:53;;;;;;;4.28;2.00;;;25.30;48.30;;;;;;5012471;28;20282;-42
2022/01/14 02:05:24;;;;;;;2.88;1.70;;;25.40;48.30;;;;;;5022922;28;20232;-47
2022/01/14 02:07:55;;;;;;;2.95;1.80;;;25.40;48.30;;;;;;5025743;28;20215;-49
2022/01/14 02:10:34;;;;;;;3.30;1.92;;;25.40;48.40;;;;;;5026317;28;20200;-44
2022/01/14 02:13:05;;;;;;;2.55;1.73;;;25.50;48.40;;;;;;5016494;28;20718;-45
2022/01/14 02:16:11;;;;;;;2.97;1.90;;;25.50;48.50;;;;;;5037573;28;20610;-43
2022/01/14 02:18:48;;;;;;;3.42;1.77;;;25.50;48.40;;;;;;5042217;28;20199;-44
2022/01/14 02:24:21;;;;;;;3.10;1.60;;;25.60;48.20;;;;;;5043885;28;20256;-43
2022/01/14 02:26:54;;;;;;;3.08;1.60;;;25.60;48.00;;;;;;5044161;28;20191;-45
2022/01/14 02:29:25;;;;;;;2.47;1.33;;;25.60;47.90;;;;;;5041309;28;20282;-46
2022/01/14 02:31:55;;;;;;;5.25;1.80;;;25.70;47.80;;;;;;5042589;28;20207;-47
2022/01/14 02:34:26;;;;;;;3.25;1.67;;;25.70;47.70;;;;;;5040743;28;20337;-41
2022/01/14 02:36:58;;;;;;;3.08;1.33;;;25.70;47.70;;;;;;5040861;28;20314;-49
2022/01/14 02:39:29;;;;;;;2.88;1.33;;;25.70;47.60;;;;;;5043629;28;20231;-42
2022/01/14 02:42:00;;;;;;;1.95;1.42;;;25.70;47.60;;;;;;5044951;28;20191;-48
2022/01/14 02:44:32;;;;;;;3.50;1.67;;;25.80;47.60;;;;;;5043784;28;20246;-44
2022/01/14 02:47:06;;;;;;;4.70;1.55;;;25.80;47.50;;;;;;5041332;28;20203;-51
2022/01/14 02:49:39;;;;;;;2.97;1.50;;;25.80;47.50;;;;;;5041806;28;20227;-44
2022/01/14 02:52:12;;;;;;;2.30;1.30;;;25.80;47.40;;;;;;5043450;28;20215;-42
2022/01/14 02:55:02;;;;;;;2.35;1.73;;;25.80;47.40;;;;;;5039881;28;20220;-46
2022/01/14 02:57:33;;;;;;;1.80;1.38;;;25.90;47.50;;;;;;5041281;28;20699;-48
2022/01/14 03:00:04;;;;;;;2.55;1.55;;;25.90;47.40;;;;;;5045475;28;20195;-47
2022/01/14 03:02:36;;;;;;;2.13;1.27;;;25.90;47.40;;;;;;5044279;28;20666;-51
2022/01/14 03:05:08;;;;;;;2.40;1.67;;;25.90;47.20;;;;;;5045218;28;20721;-46
2022/01/14 03:07:41;;;;;;;3.00;1.38;;;26.00;47.20;;;;;;5045041;28;20262;-41
2022/01/14 03:10:14;;;;;;;3.38;1.30;;;26.00;47.20;;;;;;5044568;28;20316;-50
2022/01/14 03:12:45;;;;;;;2.75;1.52;;;26.00;47.00;;;;;;5045476;28;20293;-46
2022/01/14 03:15:19;;;;;;;2.92;1.50;;;26.10;47.10;;;;;;5045453;28;20306;-43
2022/01/14 03:17:49;;;;;;;1.77;1.30;;;26.10;47.10;;;;;;5045430;28;20207;-43
2022/01/14 03:20:43;;;;;;;2.72;1.30;;;26.10;47.00;;;;;;5049430;28;20222;-46
2022/01/14 03:23:16;;;;;;;2.33;1.30;;;26.10;46.90;;;;;;5047357;28;20215;-50
2022/01/14 03:25:51;;;;;;;2.08;1.13;;;26.10;46.80;;;;;;5047613;28;20253;-49
2022/01/14 03:28:25;;;;;;;1.95;1.27;;;26.20;46.90;;;;;;5045509;28;20278;-47
2022/01/14 03:30:56;;;;;;;3.97;1.50;;;26.20;46.80;;;;;;5041579;28;20200;-45
2022/01/14 03:33:27;;;;;;;2.03;1.25;;;26.20;46.80;;;;;;5044759;28;20302;-49
2022/01/14 03:35:57;;;;;;;2.53;1.30;;;26.20;46.90;;;;;;5046391;28;20311;-46
2022/01/14 03:38:30;;;;;;;1.88;0.98;;;26.30;47.00;;;;;;5046670;28;20295;-46
2022/01/14 03:41:01;;;;;;;3.65;1.35;;;26.30;47.00;;;;;;5047885;28;20240;-48
2022/01/14 03:43:32;;;;;;;2.25;1.20;;;26.30;46.90;;;;;;5045619;28;20219;-45
2022/01/14 03:46:02;;;;;;;3.05;1.15;;;26.30;46.80;;;;;;5046803;28;20284;-49
2022/01/14 03:48:33;;;;;;;1.73;1.00;;;26.30;46.70;;;;;;5045300;28;20262;-44
2022/01/14 03:51:04;;;;;;;2.67;1.05;;;26.40;46.60;;;;;;5044318;28;20279;-46
2022/01/14 03:53:36;;;;;;;2.65;1.58;;;26.40;46.60;;;;;;5046254;28;20247;-47
2022/01/14 03:56:07;;;;;;;4.53;1.40;;;26.40;46.60;;;;;;5046754;28;20307;-50
2022/01/14 03:58:38;;;;;;;2.50;1.17;;;26.50;46.60;;;;;;5047304;28;20294;-45
2022/01/14 04:01:09;;;;;;;2.83;1.30;;;26.40;46.50;;;;;;5044363;28;20361;-48
2022/01/14 04:03:39;;;;;;;2.15;1.30;;;26.50;46.70;;;;;;5043535;28;20211;-44
2022/01/14 04:06:11;;;;;;;1.85;1.10;;;26.50;46.50;;;;;;5043425;28;20199;-45
2022/01/14 04:08:44;;;;;;;2.15;1.10;;;26.50;46.50;;;;;;5038788;28;20208;-41
2022/01/14 04:11:15;;;;;;;1.73;1.13;;;26.60;46.60;;;;;;5044008;28;20636;-49
2022/01/14 04:13:49;;;;;;;2.42;1.17;;;26.60;46.50;;;;;;5040630;28;21170;-48
2022/01/14 04:16:21;;;;;;;2.53;1.33;;;26.60;46.40;;;;;;5043168;28;20215;-46
2022/01/14 04:18:52;;;;;;;1.58;1.00;;;26.60;46.30;;;;;;5041359;28;20719;-48
2022/01/14 04:21:23;;;;;;;2.15;1.27;;;26.60;46.30;;;;;;5040845;28;20191;-44
2022/01/14 04:23:55;;;;;;;2.50;1.20;;;26.70;46.50;;;;;;5037746;28;20305;-47
2022/01/14 04:26:26;;;;;;;2.13;1.10;;;26.70;46.60;;;;;;5040489;28;20818;-50
2022/01/14 04:28:56;;;;;;;2.03;0.95;;;26.70;46.40;;;;;;5042087;28;20291;-49
2022/01/14 04:31:27;;;;;;;1.60;1.00;;;26.70;46.30;;;;;;5042789;28;20230;-52
2022/01/14 04:33:57;;;;;;;2.20;1.13;;;26.70;46.20;;;;;;5040098;28;20311;-49
2022/01/14 04:36:28;;;;;;;3.38;1.15;;;26.80;46.70;;;;;;5039451;28;20310;-47
2022/01/14 04:39:00;;;;;;;2.22;1.15;;;26.80;46.00;;;;;;5036017;28;20279;-41
2022/01/14 04:41:31;;;;;;;2.70;1.02;;;26.80;46.00;;;;;;5043296;28;20728;-42
2022/01/14 04:44:01;;;;;;;1.70;0.98;;;26.80;45.90;;;;;;5044412;28;20255;-41
2022/01/14 04:47:00;;;;;;;2.92;1.20;;;26.80;45.90;;;;;;5047178;28;20290;-47
2022/01/14 04:49:31;;;;;;;1.33;1.10;;;26.90;46.00;;;;;;5043682;28;20280;-42
2022/01/14 04:52:01;;;;;;;2.22;1.10;;;26.90;46.10;;;;;;5045802;28;20341;-43
2022/01/14 04:54:34;;;;;;;2.92;1.00;;;26.90;46.10;;;;;;5041517;28;20319;-41
2022/01/14 04:57:05;;;;;;;1.95;0.98;;;26.90;46.10;;;;;;5042856;28;20321;-42
2022/01/14 04:59:35;;;;;;;2.17;1.35;;;26.90;46.20;;;;;;5044095;28;20319;-44
2022/01/14 05:02:06;;;;;;;5.57;1.20;;;26.90;46.10;;;;;;5043243;28;20283;-44
2022/01/14 05:04:38;;;;;;;3.50;1.33;;;26.90;45.90;;;;;;5046083;28;20849;-45
2022/01/14 05:07:13;;;;;;;5.18;1.10;;;26.90;45.70;;;;;;5045070;28;20286;-45
2022/01/14 05:09:56;;;;;;;2.70;1.00;;;26.90;45.40;;;;;;5043675;28;20750;-45
2022/01/14 05:12:26;;;;;;;2.63;1.15;;;26.90;45.20;;;;;;5038741;28;20200;-42
2022/01/14 05:14:57;;;;;;;3.90;1.23;;;26.90;45.00;;;;;;5044328;28;20196;-42
2022/01/14 05:17:27;;;;;;;3.72;1.08;;;26.80;44.80;;;;;;5042185;28;20480;-45
2022/01/14 05:19:58;;;;;;;3.67;1.23;;;26.80;44.80;;;;;;5043778;28;20292;-43
2022/01/14 05:22:28;;;;;;;2.58;1.20;;;26.70;44.90;;;;;;5046273;28;20204;-44
2022/01/14 05:25:01;;;;;;;2.58;0.80;;;26.70;44.90;;;;;;5045691;28;20231;-47
2022/01/14 05:27:31;;;;;;;2.35;1.08;;;26.70;45.10;;;;;;5044409;28;20274;-45
2022/01/14 05:30:02;;;;;;;2.03;1.05;;;26.60;45.10;;;;;;5038580;28;20323;-51
2022/01/14 05:32:32;;;;;;;2.55;1.08;;;26.60;45.30;;;;;;5041011;28;20231;-43
2022/01/14 05:35:03;;;;;;;1.42;0.90;;;26.60;45.30;;;;;;5043491;28;20239;-46
2022/01/14 05:37:33;;;;;;;2.15;0.90;;;26.60;45.30;;;;;;5043260;28;20259;-44
2022/01/14 05:40:06;;;;;;;2.03;1.00;;;26.60;45.40;;;;;;5045059;28;20204;-51
2022/01/14 05:42:37;;;;;;;4.28;1.40;;;26.60;45.40;;;;;;5045576;28;20274;-44
2022/01/14 05:45:08;;;;;;;2.78;0.85;;;26.50;45.20;;;;;;5042309;28;20231;-49
2022/01/14 05:47:42;;;;;;;2.83;1.30;;;26.50;45.10;;;;;;5039559;28;20295;-41
2022/01/14 05:50:15;;;;;;;1.08;0.82;;;26.50;45.10;;;;;;5027481;28;20199;-46
2022/01/14 05:52:46;;;;;;;2.78;1.10;;;26.50;45.20;;;;;;5044148;28;20198;-47
2022/01/14 05:55:20;;;;;;;2.25;0.90;;;26.50;45.20;;;;;;5043079;28;20712;-41
2022/01/14 05:57:51;;;;;;;0.95;0.75;;;26.50;45.20;;;;;;5045730;28;20648;-48
2022/01/14 06:00:23;;;;;;;1.65;1.15;;;26.40;45.20;;;;;;5044593;28;20618;-43
2022/01/14 06:02:54;;;;;;;1.92;0.90;;;26.50;45.30;;;;;;5041546;28;20251;-48
2022/01/14 06:05:24;;;;;;;2.70;1.10;;;26.50;45.30;;;;;;5043248;28;20283;-43
2022/01/14 06:07:55;;;;;;;2.47;0.90;;;26.50;45.30;;;;;;5041875;28;20287;-44
2022/01/14 06:10:27;;;;;;;2.10;1.15;;;26.50;45.30;;;;;;5042613;28;20310;-43
2022/01/14 06:12:58;;;;;;;3.05;1.00;;;26.50;45.30;;;;;;5042412;28;20274;-46
2022/01/14 06:15:28;;;;;;;2.45;1.00;;;26.50;45.30;;;;;;5045761;28;20274;-45
2022/01/14 06:17:59;;;;;;;3.08;1.00;;;26.50;45.30;;;;;;5042636;28;20226;-41
2022/01/14 06:20:29;;;;;;;2.47;1.20;;;26.50;45.40;;;;;;5041791;28;20290;-44
2022/01/14 06:23:00;;;;;;;1.83;0.90;;;26.60;45.40;;;;;;5040871;28;20311;-45
2022/01/14 06:25:32;;;;;;;2.28;1.00;;;26.60;45.30;;;;;;5041687;28;20231;-42
2022/01/14 06:28:03;;;;;;;1.92;1.00;;;26.60;45.30;;;;;;5041948;28;20287;-45
2022/01/14 06:30:33;;;;;;;2.97;1.15;;;26.60;45.30;;;;;;5045542;28;20324;-48
2022/01/14 06:33:03;;;;;;;1.38;0.90;;;26.60;45.30;;;;;;5044390;28;20649;-43
2022/01/14 06:35:34;;;;;;;1.85;1.10;;;26.60;45.30;;;;;;5043459;28;20235;-49
2022/01/14 06:38:04;;;;;;;2.97;1.10;;;26.60;45.30;;;;;;5040237;28;20318;-43
2022/01/14 06:40:37;;;;;;;1.98;1.10;;;26.60;45.30;;;;;;5040664;28;20290;-41
2022/01/14 06:43:07;;;;;;;2.58;1.13;;;26.60;45.30;;;;;;5041917;28;20310;-42
2022/01/14 06:45:38;;;;;;;2.03;1.00;;;26.60;45.30;;;;;;5043357;28;20286;-43
2022/01/14 06:48:09;;;;;;;2.08;1.10;;;26.60;45.30;;;;;;5034020;28;20196;-41
2022/01/14 06:50:39;;;;;;;2.03;1.15;;;26.70;45.30;;;;;;5039889;28;20286;-41
2022/01/14 06:53:11;;;;;;;1.05;0.80;;;26.70;45.40;;;;;;5040134;28;20316;-42
2022/01/14 06:55:43;;;;;;;1.98;1.08;;;26.70;45.30;;;;;;5042407;28;20195;-43
2022/01/14 06:58:14;;;;;;;1.60;1.10;;;26.70;45.40;;;;;;5040979;28;20306;-42
2022/01/14 07:00:44;;;;;;;1.77;0.93;;;26.70;45.40;;;;;;5042607;28;20287;-41
2022/01/14 07:03:15;;;;;;;1.90;0.95;;;26.70;45.70;;;;;;5045113;28;20251;-41
2022/01/14 07:05:46;;;;;;;2.25;1.10;;;26.70;45.30;;;;;;5043455;28;20613;-40
2022/01/14 07:08:16;;;;;;;2.67;1.00;;;26.70;45.30;;;;;;5042422;28;20640;-41
2022/01/14 07:10:48;;;;;;;1.55;1.00;;;26.70;45.30;;;;;;5041392;28;20227;-42
2022/01/14 07:13:19;;;;;;;1.25;0.68;;;26.80;45.40;;;;;;5037296;28;20314;-44
2022/01/14 07:15:49;;;;;;;1.10;0.85;;;26.70;45.30;;;;;;5040360;28;20283;-46
2022/01/14 07:18:20;;;;;;;1.92;1.08;;;26.80;45.40;;;;;;5032538;28;20350;-42
2022/01/14 07:20:50;;;;;;;2.22;1.10;;;26.80;45.30;;;;;;5044157;28;20634;-43
2022/01/14 07:23:21;;;;;;;3.50;1.27;;;26.80;45.30;;;;;;5043210;28;20653;-42
2022/01/14 07:25:53;;;;;;;1.40;0.77;;;26.80;45.40;;;;;;5041123;28;20199;-44
2022/01/14 07:28:23;;;;;;;1.65;1.00;;;26.70;45.30;;;;;;5040384;28;20291;-44
2022/01/14 07:30:54;;;;;;;1.50;1.10;;;26.70;45.30;;;;;;5042051;28;20698;-43
2022/01/14 07:33:24;;;;;;;1.85;0.90;;;26.70;45.30;;;;;;5041923;28;20299;-48
2022/01/14 07:35:55;;;;;;;1.92;0.88;;;26.70;45.30;;;;;;5040718;28;20274;-49
2022/01/14 07:38:26;;;;;;;1.08;0.95;;;26.70;45.30;;;;;;5042484;28;20250;-47
2022/01/14 07:40:59;;;;;;;3.05;1.20;;;26.70;45.30;;;;;;5042806;28;20726;-44
2022/01/14 07:43:31;;;;;;;1.95;1.00;;;26.70;45.40;;;;;;5041410;28;20254;-44
2022/01/14 07:46:01;;;;;;;1.48;0.88;;;26.60;45.30;;;;;;5042143;28;20278;-43
2022/01/14 07:48:32;;;;;;;2.28;1.02;;;26.60;45.40;;;;;;5034619;28;20292;-47
2022/01/14 07:51:02;;;;;;;1.15;0.80;;;26.60;45.40;;;;;;5032130;28;20286;-48
2022/01/14 07:53:33;;;;;;;1.65;1.02;;;26.60;45.40;;;;;;5044381;28;20239;-44
2022/01/14 07:56:07;;;;;;;1.95;1.10;;;26.60;45.50;;;;;;5046998;28;20313;-44
2022/01/14 07:58:37;;;;;;;1.33;0.98;;;26.60;45.50;;;;;;5043552;28;20257;-44
2022/01/14 08:01:08;;;;;;;2.15;1.08;;;26.50;45.40;;;;;;5044497;28;20287;-41
2022/01/14 08:03:39;;;;;;;1.23;1.08;;;26.50;45.40;;;;;;5044243;28;20669;-43
2022/01/14 08:06:10;;;;;;;1.92;1.15;;;26.50;45.50;;;;;;5045062;28;20232;-44
2022/01/14 08:08:41;;;;;;;1.20;0.80;;;26.50;45.40;;;;;;5046408;28;20203;-49
2022/01/14 08:11:13;;;;;;;2.28;1.00;;;26.50;45.50;;;;;;5045089;28;20286;-43
2022/01/14 08:13:43;;;;;;;1.48;1.00;;;26.40;45.50;;;;;;5043365;28;20310;-41
2022/01/14 08:16:14;;;;;;;1.67;1.10;;;26.40;45.60;;;;;;5044036;28;20299;-43
2022/01/14 08:18:44;;;;;;;1.83;0.90;;;26.40;45.60;;;;;;5042893;28;21025;-42
2022/01/14 08:21:16;;;;;;;1.50;1.10;;;26.30;45.70;;;;;;5027805;28;20631;-45
2022/01/14 08:23:47;;;;;;;1.15;0.90;;;26.30;45.70;;;;;;5042545;28;20302;-44
2022/01/14 08:26:19;;;;;;;1.83;1.05;;;26.20;45.70;;;;;;5047893;28;20243;-44
2022/01/14 08:28:50;;;;;;;1.83;1.08;;;26.20;45.70;;;;;;5048626;28;20295;-43
2022/01/14 08:31:22;;;;;;;1.50;1.00;;;26.20;45.80;;;;;;5043075;28;20291;-42
2022/01/14 08:33:52;;;;;;;0.98;0.88;;;26.20;45.80;;;;;;5041047;28;20305;-43
2022/01/14 08:36:23;;;;;;;1.60;1.10;;;26.10;45.80;;;;;;5044763;28;20286;-46
2022/01/14 08:38:54;;;;;;;1.05;0.80;;;26.10;45.80;;;;;;5043186;28;20226;-46
2022/01/14 08:41:28;;;;;;;1.40;1.00;;;26.10;45.90;;;;;;5046094;28;20224;-48
2022/01/14 08:44:00;;;;;;;1.35;0.90;;;26.10;45.90;;;;;;5046250;28;20273;-42
2022/01/14 08:46:30;;;;;;;1.80;0.95;;;26.00;46.00;;;;;;5045839;28;20199;-46
2022/01/14 08:49:01;;;;;;;1.52;0.88;;;26.00;46.00;;;;;;5044224;28;20310;-44
2022/01/14 08:51:31;;;;;;;1.67;0.90;;;26.00;46.00;;;;;;5029739;28;20672;-45
2022/01/14 08:54:02;;;;;;;1.30;1.10;;;26.00;46.00;;;;;;5043382;28;20302;-45
2022/01/14 08:56:35;;;;;;;1.77;1.10;;;25.90;46.00;;;;;;5042416;28;20289;-45
2022/01/14 08:59:06;;;;;;;3.10;1.02;;;25.80;46.00;;;;;;5041810;28;20756;-41
2022/01/14 09:01:40;;;;;;;1.42;0.77;;;25.80;46.10;;;;;;5045711;28;20622;-43
2022/01/14 09:04:10;;;;;;;1.13;0.80;;;25.80;46.20;;;;;;5045968;28;20969;-42
2022/01/14 09:06:41;;;;;;;1.45;0.80;;;25.80;46.20;;;;;;5042377;28;20723;-43
2022/01/14 09:09:11;;;;;;;1.58;1.13;;;25.70;46.20;;;;;;5042474;28;20286;-42
2022/01/14 09:11:44;;;;;;;1.27;1.05;;;25.70;46.20;;;;;;5042395;28;20282;-41
2022/01/14 09:14:14;;;;;;;1.17;1.08;;;25.60;46.20;;;;;;5042634;28;20302;-41
2022/01/14 09:16:45;;;;;;;1.67;1.00;;;25.60;46.20;;;;;;5045532;28;20743;-41
2022/01/14 09:19:16;;;;;;;1.83;0.90;;;25.60;46.30;;;;;;5046230;28;20629;-48
2022/01/14 09:21:47;;;;;;;1.38;0.90;;;25.50;46.20;;;;;;5040387;28;21642;-43
2022/01/14 09:24:17;;;;;;;1.20;0.82;;;25.50;46.30;;;;;;5034140;28;20251;-41
2022/01/14 09:26:49;;;;;;;1.70;1.10;;;25.50;46.40;;;;;;5043780;28;20242;-41
2022/01/14 09:29:20;;;;;;;1.55;1.00;;;25.50;46.40;;;;;;5041847;28;20283;-48
2022/01/14 09:31:50;;;;;;;3.20;1.02;;;25.40;46.30;;;;;;5044058;28;20259;-43
2022/01/14 09:34:21;;;;;;;1.65;1.00;;;25.40;46.40;;;;;;5045787;28;20706;-44
2022/01/14 09:36:51;;;;;;;1.05;0.80;;;25.30;46.30;;;;;;5042414;28;20287;-43
2022/01/14 09:39:22;;;;;;;1.92;1.02;;;25.30;46.40;;;;;;5043051;28;20286;-41
2022/01/14 09:41:54;;;;;;;2.08;0.98;;;25.30;46.50;;;;;;5043402;28;20290;-41
2022/01/14 09:44:25;;;;;;;2.15;0.90;;;25.30;46.50;;;;;;5041941;28;20633;-40
2022/01/14 09:46:55;;;;;;;1.45;0.90;;;25.20;46.50;;;;;;5043707;28;20306;-41
2022/01/14 09:49:26;;;;;;;0.80;0.55;;;25.20;46.50;;;;;;5044549;28;20288;-42
2022/01/14 09:51:56;;;;;;;1.83;1.10;;;25.20;46.50;;;;;;5046074;28;20223;-42
2022/01/14 09:54:27;;;;;;;1.58;0.90;;;25.10;46.60;;;;;;5029225;28;20314;-41
2022/01/14 09:56:59;;;;;;;1.05;0.95;;;25.10;46.60;;;;;;5041507;28;20693;-42
2022/01/14 09:59:30;;;;;;;1.10;1.00;;;25.10;46.70;;;;;;5042866;28;20629;-44
2022/01/14 10:02:00;;;;;;;2.55;1.00;;;25.00;46.60;;;;;;5042025;28;20735;-41
2022/01/14 10:04:31;;;;;;;2.63;1.00;;;25.00;46.70;;;;;;5042601;28;20758;-41
2022/01/14 10:07:03;;;;;;;2.25;1.20;;;24.90;46.70;;;;;;5046114;28;20195;-41
2022/01/14 10:09:36;;;;;;;1.90;1.00;;;24.90;46.70;;;;;;5043829;28;20295;-43
2022/01/14 10:12:11;;;;;;;4.63;1.50;;;24.90;46.80;;;;;;5041520;28;20199;-42
2022/01/14 10:14:43;;;;;;;8.85;1.63;;;24.90;46.90;;;;;;5040624;28;20226;-42
2022/01/14 10:17:14;;;;;;;5.32;1.58;;;24.90;47.00;;;;;;5040508;28;20609;-41
2022/01/14 10:19:46;;;;;;;2.95;1.35;;;24.80;47.00;;;;;;5039652;28;20291;-42
2022/01/14 10:22:27;;;;;;;3.03;1.50;;;24.80;47.00;;;;;;5043193;28;20231;-41
2022/01/14 10:24:59;;;;;;;2.78;1.20;;;24.70;47.00;;;;;;5043220;28;20278;-41
2022/01/14 10:27:43;;;;;;;3.40;1.40;;;24.70;47.00;;;;;;5046017;28;20290;-40
2022/01/14 10:30:17;;;;;;;2.13;1.25;;;24.70;47.00;;;;;;5044177;28;20898;-45
2022/01/14 10:32:57;;;;;;;2.85;1.20;;;24.60;47.10;;;;;;5042139;28;20199;-44
2022/01/14 10:35:29;;;;;;;2.72;1.48;;;24.60;47.10;;;;;;5041330;28;20294;-44
2022/01/14 10:38:02;;;;;;;2.90;1.50;;;24.50;47.70;;;;;;5042131;28;20311;-41
2022/01/14 10:40:35;;;;;;;3.63;1.50;;;24.50;47.10;;;;;;5040064;28;20287;-42
2022/01/14 10:43:08;;;;;;;2.60;1.52;;;24.50;47.20;;;;;;5041742;28;20217;-41
2022/01/14 10:45:40;;;;;;;3.30;1.58;;;24.50;47.20;;;;;;5043530;28;20707;-47
2022/01/14 10:48:12;;;;;;;3.40;1.35;;;24.40;47.20;;;;;;5043393;28;20216;-41
2022/01/14 10:50:44;;;;;;;2.50;1.30;;;24.40;47.20;;;;;;5040960;28;20290;-42
2022/01/14 10:53:16;;;;;;;2.85;1.10;;;24.40;47.30;;;;;;5041443;28;20223;-42
2022/01/14 10:55:49;;;;;;;4.57;1.48;;;24.30;47.20;;;;;;5041965;28;20298;-41
2022/01/14 10:58:25;;;;;;;2.72;1.40;;;24.40;47.30;;;;;;5040709;28;20227;-44
2022/01/14 11:01:02;;;;;;;3.35;1.20;;;24.30;47.20;;;;;;5040268;28;20647;-43
2022/01/14 11:03:38;;;;;;;4.03;1.48;;;24.30;47.30;;;;;;5039189;28;20268;-41
2022/01/14 11:06:23;;;;;;;2.22;1.33;;;24.30;47.30;;;;;;5040694;28;20270;-42
2022/01/14 11:08:59;;;;;;;2.75;1.27;;;24.30;47.40;;;;;;5043607;28;20279;-45
2022/01/14 11:11:30;;;;;;;2.65;1.30;;;24.20;47.30;;;;;;5041524;28;20644;-40
2022/01/14 11:14:03;;;;;;;2.15;1.40;;;24.20;47.50;;;;;;5042471;28;20310;-43
2022/01/14 11:16:34;;;;;;;3.55;1.30;;;24.20;47.50;;;;;;5041657;28;20281;-48
2022/01/14 11:19:07;;;;;;;3.10;1.50;;;24.10;47.40;;;;;;5040831;28;20314;-40
2022/01/14 11:24:27;;;;;;;2.17;1.33;;;24.00;47.50;;;;;;5042140;28;20770;-42
2022/01/14 11:27:02;;;;;;;2.67;1.30;;;24.00;47.50;;;;;;5046420;28;20282;-52
2022/01/14 11:29:41;;;;;;;2.20;1.30;;;24.00;47.60;;;;;;5046511;28;20233;-42
2022/01/14 11:32:12;;;;;;;3.10;1.17;;;23.90;47.50;;;;;;5041965;28;20577;-44
2022/01/14 11:34:44;;;;;;;3.45;1.25;;;23.90;47.50;;;;;;5044467;28;20302;-41
2022/01/14 11:37:17;;;;;;;3.00;1.42;;;23.90;47.50;;;;;;5045796;28;20290;-41
2022/01/14 11:39:59;;;;;;;1.33;1.02;;;23.90;47.50;;;;;;5043481;28;20629;-40
2022/01/14 11:42:44;;;;;;;1.80;1.30;;;23.80;47.50;;;;;;5043024;28;20294;-42
2022/01/14 11:45:18;;;;;;;2.08;1.17;;;23.80;47.50;;;;;;5047155;28;20291;-41
2022/01/14 11:48:03;;;;;;;2.92;1.40;;;23.80;47.50;;;;;;5046512;28;20663;-42
2022/01/14 11:50:48;;;;;;;2.10;1.10;;;23.80;47.60;;;;;;5048836;28;20253;-41
2022/01/14 11:53:39;;;;;;;2.35;1.10;;;23.80;47.60;;;;;;5047141;28;20216;-41
2022/01/14 11:56:31;;;;;;;2.20;1.20;;;23.70;47.70;;;;;;5046305;28;20195;-49
2022/01/14 11:59:33;;;;;;;2.08;1.08;;;23.70;47.70;;;;;;5043410;28;20777;-42
2022/01/14 12:02:42;;;;;;;2.50;1.20;;;23.70;47.70;;;;;;5044101;28;20386;-41
2022/01/14 12:05:19;;;;;;;2.67;1.20;;;23.60;47.80;;;;;;5046697;28;20286;-40
2022/01/14 12:08:15;;;;;;;1.85;0.98;;;23.50;47.70;;;;;;5044796;28;20256;-41
2022/01/14 12:10:47;;;;;;;1.50;1.00;;;23.60;47.90;;;;;;5043778;28;20196;-42
2022/01/14 12:13:31;;;;;;;2.00;1.10;;;23.50;48.40;;;;;;5044206;28;20770;-41
2022/01/14 12:16:03;;;;;;;1.10;0.90;;;23.40;47.90;;;;;;5044784;28;20659;-43
2022/01/14 12:19:17;;;;;;;2.40;1.40;;;23.50;47.90;;;;;;5043447;28;20227;-41
2022/01/14 12:22:00;;;;;;;2.60;1.30;;;23.40;47.90;;;;;;5008545;28;20287;-41
2022/01/14 12:24:37;;;;;;;3.47;1.30;;;23.40;47.90;;;;;;5041890;28;20651;-42
2022/01/14 12:27:34;;;;;;;2.13;1.17;;;23.40;47.90;;;;;;5045275;28;20231;-41
2022/01/14 12:30:28;;;;;;;1.52;0.90;;;23.40;48.00;;;;;;5043345;28;20203;-41
2022/01/14 12:32:59;;;;;;;2.17;1.08;;;23.30;47.90;;;;;;5044344;28;20230;-41
2022/01/14 12:35:35;;;;;;;2.00;1.25;;;23.30;47.90;;;;;;5047676;28;20196;-41
2022/01/14 12:38:08;;;;;;;2.17;1.20;;;23.30;48.00;;;;;;5046878;28;20278;-41
2022/01/14 12:40:40;;;;;;;1.67;1.10;;;23.30;48.00;;;;;;5045708;28;20223;-41
2022/01/14 12:43:13;;;;;;;1.25;0.90;;;23.20;48.00;;;;;;5043104;28;20234;-47
2022/01/14 12:46:11;;;;;;;2.38;1.10;;;23.20;48.00;;;;;;5042046;28;20623;-45
2022/01/14 12:48:52;;;;;;;2.00;1.20;;;23.20;48.10;;;;;;5041057;28;20200;-40
2022/01/14 12:51:26;;;;;;;1.90;1.23;;;23.20;48.10;;;;;;5026036;28;20287;-41
2022/01/14 12:54:02;;;;;;;1.58;1.00;;;23.10;48.10;;;;;;5036255;28;20342;-41
2022/01/14 12:56:34;;;;;;;1.67;1.02;;;23.10;48.10;;;;;;5044843;28;20231;-41
2022/01/14 12:59:09;;;;;;;3.10;1.30;;;23.10;48.10;;;;;;5040726;28;20874;-42
2022/01/14 13:01:41;;;;;;;2.70;1.00;;;23.00;48.10;;;;;;5038984;28;20671;-41
2022/01/14 13:04:15;;;;;;;2.35;1.27;;;23.00;48.10;;;;;;5039166;28;20306;-41
2022/01/14 13:06:48;;;;;;;2.10;1.10;;;23.00;48.20;;;;;;5039524;28;20286;-40
2022/01/14 13:09:22;;;;;;;2.92;1.10;;;23.00;48.20;;;;;;5041233;28;20302;-43
2022/01/14 13:11:59;;;;;;;1.80;0.93;;;23.00;48.20;;;;;;5040515;28;20305;-43
2022/01/14 13:14:32;;;;;;;2.65;1.08;;;22.90;48.10;;;;;;5040905;28;20211;-41
2022/01/14 13:17:08;;;;;;;1.63;1.10;;;22.90;48.10;;;;;;5043903;28;20200;-49
2022/01/14 13:19:39;;;;;;;3.13;0.88;;;22.90;48.20;;;;;;5043255;28;20302;-44
2022/01/14 13:22:12;;;;;;;2.10;1.00;;;22.90;48.20;;;;;;5033103;28;20716;-42
2022/01/14 13:24:45;;;;;;;1.33;1.02;;;22.80;48.20;;;;;;5036204;28;20247;-42
2022/01/14 13:27:21;;;;;;;1.20;0.95;;;22.80;48.20;;;;;;5043295;28;20283;-41
2022/01/14 13:29:53;;;;;;;2.50;1.20;;;22.80;48.20;;;;;;5042240;28;20278;-41
2022/01/14 13:32:25;;;;;;;1.88;0.90;;;22.80;48.20;;;;;;5042448;28;20296;-41
2022/01/14 13:34:58;;;;;;;1.15;0.90;;;22.70;48.80;;;;;;5041763;28;20294;-42